Time;durP1;ratioP1;P1;durP2;ratioP2;P2;SDS_P1;SDS_P2;PMS_P1;PMS_P2;Temp;Humidity;BMP_temperature;BMP_pressure;BME280_temperature;BME280_humidity;BME280_pressure;Samples;Min_cycle;Max_cycle;Signal;HPM_P1;HPM_P2
2021/08/19 00:01:45;;;;;;;6.97;3.60;;;;;;;17.52;100.00;100248.81;4967425;28;20415;-68
2021/08/19 00:04:10;;;;;;;6.57;3.38;;;;;;;17.52;100.00;100245.31;4974567;28;20070;-66
2021/08/19 00:06:36;;;;;;;6.65;3.53;;;;;;;17.51;100.00;100236.41;4985275;28;20049;-66
2021/08/19 00:09:01;;;;;;;7.13;3.70;;;;;;;17.68;100.00;100235.34;4954653;28;20027;-66
2021/08/19 00:11:28;;;;;;;5.80;3.03;;;;;;;17.60;100.00;100238.59;4970232;28;20062;-66
2021/08/19 00:13:53;;;;;;;5.05;3.00;;;;;;;17.49;100.00;100235.25;4971154;28;20491;-66
2021/08/19 00:16:19;;;;;;;8.25;3.70;;;;;;;17.40;100.00;100238.47;4971710;28;20049;-66
2021/08/19 00:18:44;;;;;;;5.32;2.85;;;;;;;17.41;100.00;100240.00;4944621;28;20035;-66
2021/08/19 00:21:10;;;;;;;6.32;2.55;;;;;;;17.27;100.00;100236.69;4954320;28;20521;-67
2021/08/19 00:23:36;;;;;;;4.07;2.25;;;;;;;17.36;100.00;100240.47;4971295;28;20424;-66
2021/08/19 00:26:04;;;;;;;6.10;2.95;;;;;;;17.27;100.00;100242.16;4970245;28;20081;-66
2021/08/19 00:28:31;;;;;;;7.32;3.17;;;;;;;17.29;100.00;100254.19;4970356;28;20094;-66
2021/08/19 00:30:56;;;;;;;4.05;2.50;;;;;;;17.31;100.00;100238.22;4970946;28;20451;-66
2021/08/19 00:33:23;;;;;;;5.80;3.28;;;;;;;17.35;100.00;100240.88;4970720;28;20035;-66
2021/08/19 00:35:49;;;;;;;4.30;2.60;;;;;;;17.37;100.00;100241.22;4966015;28;20031;-66
2021/08/19 00:38:14;;;;;;;5.78;2.92;;;;;;;17.37;100.00;100250.19;4968555;28;20376;-66
2021/08/19 00:40:39;;;;;;;5.43;3.10;;;;;;;17.36;100.00;100245.94;4969187;28;20042;-66
2021/08/19 00:43:06;;;;;;;7.07;2.88;;;;;;;17.37;100.00;100247.47;4966453;28;20035;-66
2021/08/19 00:45:34;;;;;;;5.80;3.13;;;;;;;17.48;100.00;100248.09;4971375;28;20049;-66
2021/08/19 00:47:59;;;;;;;6.75;3.15;;;;;;;17.57;100.00;100245.66;4971511;28;20507;-66
2021/08/19 00:50:26;;;;;;;4.97;2.83;;;;;;;17.42;100.00;100233.38;4971001;28;20060;-66
2021/08/19 00:52:52;;;;;;;5.45;2.42;;;;;;;17.38;100.00;100242.78;4969281;28;20058;-66
2021/08/19 00:55:17;;;;;;;9.65;3.30;;;;;;;17.41;100.00;100240.00;4985634;28;20041;-66
2021/08/19 00:57:47;;;;;;;7.15;3.28;;;;;;;17.18;100.00;100248.13;4971523;28;20042;-66
2021/08/19 01:00:13;;;;;;;4.72;2.85;;;;;;;17.17;100.00;100245.81;4968157;28;20064;-65
2021/08/19 01:02:51;;;;;;;4.28;2.45;;;;;;;17.25;100.00;100230.94;4970556;28;20272;-68
2021/08/19 01:05:22;;;;;;;4.70;2.63;;;;;;;17.14;100.00;100240.00;4965907;28;20047;-68
2021/08/19 01:07:48;;;;;;;5.85;2.80;;;;;;;17.18;100.00;100234.50;4989255;23;20045;-65
2021/08/19 01:10:13;;;;;;;6.18;2.80;;;;;;;17.20;100.00;100229.41;5004250;28;20582;-67
2021/08/19 01:12:46;;;;;;;5.57;2.80;;;;;;;17.08;100.00;100230.75;5004676;28;20030;-68
2021/08/19 01:15:12;;;;;;;5.70;2.85;;;;;;;17.15;100.00;100236.09;4998331;28;20038;-67
2021/08/19 01:17:38;;;;;;;6.53;2.70;;;;;;;17.19;100.00;100240.72;4993693;28;20069;-67
2021/08/19 01:20:05;;;;;;;5.40;2.95;;;;;;;17.22;100.00;100248.84;4987455;28;20030;-67
2021/08/19 01:22:30;;;;;;;5.85;3.22;;;;;;;17.14;100.00;100256.31;4995401;28;20038;-66
2021/08/19 01:24:56;;;;;;;4.78;2.58;;;;;;;17.23;100.00;100252.34;4997149;28;20092;-66
2021/08/19 01:27:22;;;;;;;3.83;2.55;;;;;;;17.17;100.00;100247.34;4998399;28;20030;-67
2021/08/19 01:29:50;;;;;;;4.63;2.65;;;;;;;17.15;100.00;100249.69;5001793;28;20062;-67
2021/08/19 01:32:16;;;;;;;4.63;2.72;;;;;;;17.25;100.00;100256.16;4971959;28;20030;-66
2021/08/19 01:34:42;;;;;;;4.55;2.63;;;;;;;17.24;100.00;100257.38;4997960;28;20105;-67
2021/08/19 01:37:09;;;;;;;4.40;2.53;;;;;;;17.15;100.00;100254.34;4998283;28;20794;-67
2021/08/19 01:39:35;;;;;;;5.22;2.70;;;;;;;17.12;100.00;100255.97;4994420;28;20471;-67
2021/08/19 01:42:01;;;;;;;6.65;2.65;;;;;;;17.22;100.00;100254.28;4981951;28;20057;-67
2021/08/19 01:44:26;;;;;;;5.13;2.88;;;;;;;17.38;100.00;100256.41;4988437;28;20038;-67
2021/08/19 01:46:56;;;;;;;5.57;2.92;;;;;;;17.23;100.00;100253.09;4983919;28;20080;-66
2021/08/19 01:49:22;;;;;;;6.65;2.13;;;;;;;17.34;100.00;100253.75;4999804;28;20062;-66
2021/08/19 01:51:49;;;;;;;5.03;2.53;;;;;;;17.26;100.00;100257.72;4991224;28;20058;-67
2021/08/19 01:54:15;;;;;;;4.95;2.20;;;;;;;17.23;100.00;100247.66;5002858;28;20477;-66
2021/08/19 01:56:41;;;;;;;6.35;2.35;;;;;;;17.30;100.00;100253.00;5005396;28;20070;-67
2021/08/19 01:59:07;;;;;;;5.68;2.88;;;;;;;17.24;100.00;100240.25;4994444;28;20075;-66
2021/08/19 02:01:32;;;;;;;4.82;2.65;;;;;;;17.25;100.00;100244.53;4988941;28;20483;-66
2021/08/19 02:03:57;;;;;;;5.47;2.58;;;;;;;17.19;100.00;100249.63;5002867;28;20590;-66
2021/08/19 02:06:23;;;;;;;3.67;2.42;;;;;;;17.19;100.00;100249.63;4981935;28;20030;-66
2021/08/19 02:08:49;;;;;;;4.25;2.58;;;;;;;17.21;100.00;100247.28;4994347;28;20030;-67
2021/08/19 02:11:14;;;;;;;5.30;2.65;;;;;;;17.21;100.00;100247.28;5001371;28;20038;-65
2021/08/19 02:13:41;;;;;;;5.78;2.40;;;;;;;17.12;100.00;100247.03;4999988;28;20038;-67
2021/08/19 02:16:06;;;;;;;4.88;2.58;;;;;;;17.17;100.00;100246.56;4992799;28;20153;-65
2021/08/19 02:18:32;;;;;;;5.70;2.55;;;;;;;17.23;100.00;100249.63;4980769;28;20124;-68
2021/08/19 02:20:57;;;;;;;2.65;2.05;;;;;;;17.20;100.00;100259.38;4992819;28;20049;-66
2021/08/19 02:23:23;;;;;;;4.80;2.75;;;;;;;17.33;100.00;100256.84;4983512;28;20030;-66
2021/08/19 02:25:49;;;;;;;3.90;2.55;;;;;;;17.25;100.00;100256.16;4993743;28;20199;-67
2021/08/19 02:28:14;;;;;;;5.10;2.15;;;;;;;17.30;100.00;100260.41;4996742;28;20032;-67
2021/08/19 02:30:40;;;;;;;4.30;2.67;;;;;;;17.29;100.00;100251.47;4987967;28;20034;-66
2021/08/19 02:33:05;;;;;;;7.00;2.80;;;;;;;17.27;100.00;100258.47;4994145;28;20406;-66
2021/08/19 02:35:31;;;;;;;7.20;2.67;;;;;;;17.30;100.00;100252.22;4992969;28;20084;-67
2021/08/19 02:38:02;;;;;;;4.57;2.72;;;;;;;17.26;100.00;100256.94;4994290;28;20034;-66
2021/08/19 02:40:29;;;;;;;4.10;2.53;;;;;;;17.31;100.00;100253.75;4994458;28;20434;-65
2021/08/19 02:42:55;;;;;;;5.80;2.40;;;;;;;17.36;100.00;100256.81;4978261;28;20982;-65
2021/08/19 02:45:21;;;;;;;5.55;2.70;;;;;;;17.27;100.00;100272.88;4999203;28;20044;-65
2021/08/19 02:47:47;;;;;;;5.45;3.10;;;;;;;17.25;100.00;100260.88;4999204;28;20529;-64
2021/08/19 02:50:13;;;;;;;8.55;2.95;;;;;;;17.19;100.00;100273.38;4999768;28;20031;-69
2021/08/19 02:52:39;;;;;;;5.60;2.72;;;;;;;17.20;100.00;100266.75;4992056;28;20034;-65
2021/08/19 02:55:05;;;;;;;6.00;2.90;;;;;;;17.33;100.00;100276.69;5001373;28;20491;-65
2021/08/19 02:57:31;;;;;;;8.05;3.03;;;;;;;17.29;100.00;100273.22;4992047;28;20042;-66
2021/08/19 02:59:57;;;;;;;7.95;3.40;;;;;;;17.24;100.00;100276.41;4982667;28;20038;-65
2021/08/19 03:02:23;;;;;;;7.82;3.65;;;;;;;17.22;100.00;100276.06;4994435;28;20046;-66
2021/08/19 03:04:48;;;;;;;5.38;2.63;;;;;;;17.22;100.00;100276.06;4991370;28;20134;-65
2021/08/19 03:07:14;;;;;;;6.53;3.45;;;;;;;17.11;100.00;100267.25;5003281;28;20069;-65
2021/08/19 03:09:39;;;;;;;7.32;3.17;;;;;;;17.14;100.00;100269.94;4992191;28;20032;-66
2021/08/19 03:12:05;;;;;;;7.07;3.67;;;;;;;17.03;100.00;100269.28;4990218;28;20489;-67
2021/08/19 03:14:32;;;;;;;8.43;3.75;;;;;;;16.99;100.00;100265.81;4981942;28;20034;-66
2021/08/19 03:16:58;;;;;;;7.38;3.85;;;;;;;17.00;100.00;100267.38;5000446;28;20578;-66
2021/08/19 03:19:23;;;;;;;8.65;4.05;;;;;;;16.91;100.00;100263.63;4997031;28;20123;-66
2021/08/19 03:21:49;;;;;;;9.00;3.92;;;;;;;16.83;100.00;100268.38;4992093;28;20057;-66
2021/08/19 03:24:14;;;;;;;7.68;4.28;;;;;;;16.91;100.00;100271.78;4994403;28;20034;-66
2021/08/19 03:26:41;;;;;;;9.85;3.70;;;;;;;16.92;100.00;100276.03;4995068;28;20030;-68
2021/08/19 03:29:07;;;;;;;5.95;3.08;;;;;;;16.86;100.00;100259.38;5001322;28;20141;-67
2021/08/19 03:31:32;;;;;;;11.45;4.20;;;;;;;16.83;100.00;100268.38;4995077;28;20038;-67
2021/08/19 03:33:58;;;;;;;7.35;3.70;;;;;;;16.87;100.00;100271.81;4986608;28;20038;-67
2021/08/19 03:36:25;;;;;;;6.60;3.22;;;;;;;16.74;100.00;100270.03;4980607;28;20495;-68
2021/08/19 03:38:50;;;;;;;8.88;3.47;;;;;;;16.85;100.00;100267.97;4976350;28;20400;-67
2021/08/19 03:41:16;;;;;;;5.75;2.97;;;;;;;16.77;100.00;100269.22;4978899;28;20046;-68
2021/08/19 03:43:45;;;;;;;5.07;2.70;;;;;;;16.82;100.00;100272.25;4980136;28;20026;-66
2021/08/19 03:46:10;;;;;;;6.72;2.40;;;;;;;16.80;100.00;100263.72;4963876;28;20111;-66
2021/08/19 03:48:36;;;;;;;3.55;1.75;;;;;;;16.75;100.00;100269.63;4974895;28;20487;-68
2021/08/19 03:51:03;;;;;;;2.38;1.65;;;;;;;16.78;100.00;100276.97;4972463;28;20030;-67
2021/08/19 03:53:28;;;;;;;5.93;1.88;;;;;;;16.73;100.00;100269.25;4993136;28;20109;-65
2021/08/19 03:55:54;;;;;;;2.85;1.90;;;;;;;16.78;100.00;100270.75;4991465;28;20554;-67
2021/08/19 03:58:19;;;;;;;5.65;2.22;;;;;;;16.70;100.00;100269.31;4987470;28;20033;-67
2021/08/19 04:00:47;;;;;;;4.40;1.65;;;;;;;16.65;100.00;100265.06;4992263;28;20042;-66
2021/08/19 04:03:16;;;;;;;3.70;1.70;;;;;;;16.68;100.00;100272.44;4978237;28;20078;-66
2021/08/19 04:05:42;;;;;;;4.50;1.48;;;;;;;16.79;100.00;100278.50;4974833;28;20042;-68
2021/08/19 04:08:07;;;;;;;2.42;1.58;;;;;;;16.72;100.00;100280.53;4975896;28;20035;-67
2021/08/19 04:10:32;;;;;;;4.13;2.00;;;;;;;16.66;100.00;100276.72;4982224;28;20414;-68
2021/08/19 04:12:58;;;;;;;3.97;2.10;;;;;;;16.70;100.00;100286.41;4992252;28;20121;-67
2021/08/19 04:15:24;;;;;;;3.60;1.90;;;;;;;16.69;100.00;100270.47;4989660;28;20071;-68
2021/08/19 04:17:52;;;;;;;3.80;2.00;;;;;;;16.78;100.00;100278.94;4997451;28;20042;-65
2021/08/19 04:20:18;;;;;;;3.58;1.98;;;;;;;16.66;100.00;100279.44;4996746;28;20128;-66
2021/08/19 04:22:44;;;;;;;2.83;1.67;;;;;;;16.75;100.00;100287.88;4992847;28;20070;-67
2021/08/19 04:25:10;;;;;;;4.38;1.92;;;;;;;16.75;100.00;100280.50;4988367;28;20037;-68
2021/08/19 04:27:36;;;;;;;4.47;1.90;;;;;;;16.78;100.00;100293.28;4993323;28;20030;-67
2021/08/19 04:30:01;;;;;;;5.65;2.00;;;;;;;16.72;100.00;100281.31;4988073;28;20061;-66
2021/08/19 04:32:26;;;;;;;4.97;2.47;;;;;;;16.69;100.00;100273.19;4988843;28;20040;-66
2021/08/19 04:34:52;;;;;;;3.53;1.60;;;;;;;16.66;100.00;100271.28;4993264;28;20065;-65
2021/08/19 04:37:18;;;;;;;6.13;1.67;;;;;;;16.62;100.00;100267.81;4988546;28;20034;-68
2021/08/19 04:39:43;;;;;;;5.43;1.58;;;;;;;16.68;100.00;100268.94;4990560;28;20074;-67
2021/08/19 04:42:09;;;;;;;3.17;1.38;;;;;;;16.82;100.00;100271.50;4983741;28;20039;-65
2021/08/19 04:44:34;;;;;;;2.85;1.77;;;;;;;16.83;100.00;100283.91;5000653;28;20073;-67
2021/08/19 04:47:00;;;;;;;3.33;2.05;;;;;;;16.96;100.00;100282.19;5001743;28;20344;-67
2021/08/19 04:49:25;;;;;;;4.45;1.95;;;;;;;16.85;100.00;100287.00;4998758;28;20104;-66
2021/08/19 04:51:51;;;;;;;3.45;2.00;;;;;;;16.79;100.00;100294.84;4972342;28;20071;-67
2021/08/19 04:54:16;;;;;;;4.05;2.20;;;;;;;16.78;100.00;100287.84;4976515;28;20042;-67
2021/08/19 04:56:41;;;;;;;3.45;2.15;;;;;;;16.84;100.00;100296.34;4981510;28;20089;-67
2021/08/19 04:59:09;;;;;;;4.47;2.33;;;;;;;16.84;100.00;100288.94;4982220;28;20038;-67
2021/08/19 05:01:35;;;;;;;3.97;2.00;;;;;;;16.96;100.00;100295.81;4981552;28;20045;-67
2021/08/19 05:04:02;;;;;;;4.38;2.28;;;;;;;16.97;100.00;100287.25;4985996;28;20093;-67
2021/08/19 05:06:29;;;;;;;3.13;1.95;;;;;;;16.90;100.00;100284.59;4998318;28;20479;-67
2021/08/19 05:08:56;;;;;;;3.30;2.05;;;;;;;16.94;100.00;100290.00;4996562;28;20041;-65
2021/08/19 05:11:22;;;;;;;5.03;2.10;;;;;;;16.83;100.00;100290.13;4989436;28;20030;-66
2021/08/19 05:13:48;;;;;;;4.50;2.10;;;;;;;17.00;100.00;100288.38;4995969;28;20084;-67
2021/08/19 05:16:14;;;;;;;4.55;1.98;;;;;;;17.08;100.00;100292.56;4990721;28;20521;-65
2021/08/19 05:18:40;;;;;;;4.75;1.85;;;;;;;17.14;100.00;100299.88;4987211;28;20052;-67
2021/08/19 05:21:06;;;;;;;4.43;2.30;;;;;;;17.23;100.00;100306.78;5000329;28;20073;-68
2021/08/19 05:23:32;;;;;;;3.72;1.98;;;;;;;17.13;100.00;100308.41;4981896;28;20531;-65
2021/08/19 05:25:57;;;;;;;3.30;1.85;;;;;;;17.19;100.00;100306.03;4991405;28;20113;-68
2021/08/19 05:28:23;;;;;;;3.47;2.08;;;;;;;17.13;100.00;100305.69;4997004;28;20056;-67
2021/08/19 05:30:48;;;;;;;5.43;2.00;;;;;;;17.15;100.00;100311.50;4983536;28;20038;-66
2021/08/19 05:33:14;;;;;;;4.53;1.95;;;;;;;17.16;100.00;100313.06;4993494;28;20035;-67
2021/08/19 05:35:39;;;;;;;2.75;1.95;;;;;;;17.15;100.00;100314.22;4993328;28;20566;-68
2021/08/19 05:38:05;;;;;;;3.38;2.03;;;;;;;17.22;100.00;100321.56;4993844;28;20188;-67
2021/08/19 05:40:30;;;;;;;3.65;2.22;;;;;;;17.30;100.00;100323.00;4992224;28;20045;-67
2021/08/19 05:42:56;;;;;;;3.65;1.83;;;;;;;17.25;100.00;100321.50;4985433;28;20042;-67
2021/08/19 05:45:21;;;;;;;5.45;2.53;;;;;;;17.24;100.00;100325.41;4993552;28;20070;-67
2021/08/19 05:47:47;;;;;;;6.13;2.55;;;;;;;17.32;100.00;100332.31;4993607;28;20026;-65
2021/08/19 05:50:12;;;;;;;3.95;2.70;;;;;;;17.40;100.00;100333.75;4995973;28;20054;-67
2021/08/19 05:52:38;;;;;;;5.72;2.50;;;;;;;17.35;100.00;100336.16;4993694;28;20034;-67
2021/08/19 05:55:05;;;;;;;4.57;2.03;;;;;;;17.41;100.00;100343.47;4983590;28;20046;-65
2021/08/19 05:57:30;;;;;;;3.45;2.08;;;;;;;17.40;100.00;100344.63;4977358;28;20078;-67
2021/08/19 05:59:56;;;;;;;5.20;2.60;;;;;;;17.31;100.00;100346.31;4974046;28;20578;-66
2021/08/19 06:02:21;;;;;;;5.10;2.67;;;;;;;17.25;100.00;100343.28;4976595;28;20039;-67
2021/08/19 06:04:47;;;;;;;4.78;2.75;;;;;;;17.28;100.00;100350.66;4979065;28;20039;-68
2021/08/19 06:07:12;;;;;;;5.18;2.67;;;;;;;17.33;100.00;100352.13;4977242;28;20522;-64
2021/08/19 06:09:37;;;;;;;4.57;2.75;;;;;;;17.47;100.00;100352.75;4981229;28;20092;-68
2021/08/19 06:12:04;;;;;;;6.15;2.92;;;;;;;17.42;100.00;100353.19;4975333;28;20561;-67
2021/08/19 06:14:29;;;;;;;6.55;2.92;;;;;;;17.50;100.00;100354.66;4978879;28;20035;-66
2021/08/19 06:16:55;;;;;;;5.68;2.92;;;;;;;17.26;100.00;100350.28;4977138;28;20073;-67
2021/08/19 06:19:20;;;;;;;4.32;2.60;;;;;;;17.41;100.00;100362.53;4990686;28;20038;-66
2021/08/19 06:21:46;;;;;;;5.22;2.72;;;;;;;17.36;100.00;100363.00;4994183;28;20045;-67
2021/08/19 06:24:11;;;;;;;8.10;3.00;;;;;;;17.26;100.00;100355.72;4990130;28;20027;-68
2021/08/19 06:26:37;;;;;;;5.32;3.00;;;;;;;17.30;100.00;100351.00;4983422;28;20034;-67
2021/08/19 06:29:02;;;;;;;7.63;3.15;;;;;;;17.33;100.00;100354.84;5003345;28;20038;-67
2021/08/19 06:31:28;;;;;;;7.30;3.17;;;;;;;17.36;100.00;100354.84;4980352;28;20069;-68
2021/08/19 06:33:53;;;;;;;6.47;3.33;;;;;;;17.54;100.00;100358.13;4986557;28;20047;-67
2021/08/19 06:36:19;;;;;;;6.13;3.40;;;;;;;17.57;100.00;100351.88;4987417;28;20022;-66
2021/08/19 06:38:44;;;;;;;6.72;3.78;;;;;;;17.68;100.00;100355.22;4981663;28;20042;-67
2021/08/19 06:41:10;;;;;;;6.07;3.53;;;;;;;17.86;100.00;100355.75;4979520;28;20049;-67
2021/08/19 06:43:35;;;;;;;7.97;4.10;;;;;;;17.90;100.00;100348.25;4977306;28;20067;-66
2021/08/19 06:46:00;;;;;;;8.63;4.03;;;;;;;17.99;100.00;100350.50;4974265;28;20097;-67
2021/08/19 06:48:26;;;;;;;6.05;3.13;;;;;;;18.06;100.00;100353.09;4981536;28;20088;-67
2021/08/19 06:50:51;;;;;;;6.55;3.25;;;;;;;18.15;100.00;100347.91;4980216;28;20472;-66
2021/08/19 06:53:17;;;;;;;6.05;3.13;;;;;;;18.30;100.00;100341.03;4974591;28;20384;-67
2021/08/19 06:55:42;;;;;;;5.10;3.25;;;;;;;18.35;100.00;100353.44;4975000;28;20051;-66
2021/08/19 06:58:08;;;;;;;6.07;2.97;;;;;;;18.43;100.00;100349.41;4974364;28;20034;-65
2021/08/19 07:00:33;;;;;;;4.85;2.58;;;;;;;18.37;100.00;100354.56;4977186;28;20054;-66
2021/08/19 07:02:59;;;;;;;5.00;2.55;;;;;;;18.37;100.00;100360.00;4982303;28;20431;-67
2021/08/19 07:05:24;;;;;;;5.25;2.60;;;;;;;18.49;100.00;100359.44;4980835;28;20384;-64
2021/08/19 07:07:50;;;;;;;4.47;2.35;;;;;;;18.44;100.00;100368.13;4994184;23;20680;-68
2021/08/19 07:10:16;;;;;;;3.90;2.15;;;;;;;18.28;100.00;100359.00;4999105;28;20056;-68
2021/08/19 07:12:41;;;;;;;4.90;1.88;;;;;;;18.23;100.00;100368.44;4997682;28;20026;-68
2021/08/19 07:15:08;;;;;;;3.50;2.20;;;;;;;18.17;100.00;100372.03;4977784;28;20442;-68
2021/08/19 07:17:33;;;;;;;5.03;2.53;;;;;;;18.13;100.00;100379.50;4996985;28;20507;-68
2021/08/19 07:20:00;;;;;;;5.43;2.42;;;;;;;18.23;100.00;100379.34;5004063;28;20026;-68
2021/08/19 07:22:26;;;;;;;4.07;2.30;;;;;;;18.12;100.00;100389.63;5003319;28;20030;-68
2021/08/19 07:24:51;;;;;;;5.35;2.50;;;;;;;18.09;100.00;100392.41;5009919;28;20038;-68
2021/08/19 07:27:17;;;;;;;5.57;2.78;;;;;;;18.13;100.00;100382.22;5006739;28;20053;-69
2021/08/19 07:29:42;;;;;;;4.88;2.63;;;;;;;18.01;100.00;100389.00;5007296;28;20096;-69
2021/08/19 07:32:08;;;;;;;4.63;2.70;;;;;;;17.95;100.00;100394.16;5005440;28;20437;-68
2021/08/19 07:34:33;;;;;;;6.03;2.28;;;;;;;18.02;100.00;100379.66;5010087;28;20041;-69
2021/08/19 07:37:00;;;;;;;5.63;2.33;;;;;;;17.97;100.00;100397.22;5008421;28;20042;-69
2021/08/19 07:39:26;;;;;;;5.10;2.47;;;;;;;18.03;100.00;100387.41;5003984;28;20034;-69
2021/08/19 07:41:51;;;;;;;5.45;2.60;;;;;;;17.95;100.00;100379.75;5010707;28;20033;-69
2021/08/19 07:44:17;;;;;;;4.05;1.65;;;;;;;18.06;100.00;100380.34;4989951;28;20402;-69
2021/08/19 07:46:42;;;;;;;3.33;1.50;;;;;;;18.21;100.00;100386.38;5002011;28;20034;-69
2021/08/19 07:49:08;;;;;;;3.88;1.70;;;;;;;18.18;100.00;100390.69;4993454;28;20454;-69
2021/08/19 07:51:34;;;;;;;3.38;1.30;;;;;;;18.23;100.00;100389.47;5010343;28;20042;-69
2021/08/19 07:54:00;;;;;;;3.13;1.60;;;;;;;18.34;100.00;100385.38;4993178;28;20037;-68
2021/08/19 07:56:26;;;;;;;2.55;1.52;;;;;;;18.45;100.00;100393.41;5005119;28;20026;-69
2021/08/19 07:58:52;;;;;;;2.83;1.55;;;;;;;18.45;100.00;100386.00;5008870;28;20493;-69
2021/08/19 08:01:17;;;;;;;3.22;1.98;;;;;;;18.46;100.00;100386.78;5003239;28;20048;-69
2021/08/19 08:03:43;;;;;;;2.40;1.85;;;;;;;18.56;100.00;100391.31;5008761;28;20532;-68
2021/08/19 08:06:08;;;;;;;2.75;2.00;;;;;;;18.64;100.00;100398.19;5008201;28;20034;-69
2021/08/19 08:08:34;;;;;;;3.30;2.00;;;;;;;18.74;100.00;100386.31;5008276;28;20037;-68
2021/08/19 08:10:59;;;;;;;3.65;2.05;;;;;;;18.69;100.00;100393.03;5006997;28;20038;-69
2021/08/19 08:13:25;;;;;;;3.78;1.80;;;;;;;18.72;100.00;100400.38;5008600;28;20041;-68
2021/08/19 08:15:50;;;;;;;3.42;2.15;;;;;;;18.70;100.00;100399.22;5010018;28;20030;-68
2021/08/19 08:18:18;;;;;;;4.57;2.50;;;;;;;18.68;100.00;100402.38;5002944;28;20030;-69
2021/08/19 08:20:44;;;;;;;6.25;2.30;;;;;;;18.60;100.00;100400.97;4999852;28;20180;-69
2021/08/19 08:23:10;;;;;;;4.75;2.10;;;;;;;18.53;100.00;100398.34;5006840;28;20038;-69
2021/08/19 08:25:36;;;;;;;3.85;2.15;;;;;;;18.50;100.00;100404.66;5006597;28;20045;-69
2021/08/19 08:28:05;;;;;;;3.30;1.95;;;;;;;18.59;100.00;100413.06;4994204;28;20289;-69
2021/08/19 08:30:32;;;;;;;3.42;1.95;;;;;;;18.56;100.00;100411.16;5001326;28;20018;-69
2021/08/19 08:33:00;;;;;;;3.80;2.00;;;;;;;18.53;100.00;100414.72;5000328;28;20034;-69
2021/08/19 08:35:27;;;;;;;3.95;1.92;;;;;;;18.48;100.00;100419.88;5006097;28;20486;-69
2021/08/19 08:37:52;;;;;;;3.10;1.80;;;;;;;18.60;100.00;100420.06;5005311;28;20489;-68
2021/08/19 08:40:19;;;;;;;2.80;1.52;;;;;;;18.58;100.00;100432.59;5005114;28;20042;-69
2021/08/19 08:42:45;;;;;;;2.95;1.80;;;;;;;18.59;100.00;100434.13;5004288;28;20038;-69
2021/08/19 08:45:12;;;;;;;5.32;1.95;;;;;;;18.58;100.00;100432.59;5005488;28;20026;-69
2021/08/19 08:47:39;;;;;;;3.08;2.03;;;;;;;18.46;100.00;100438.63;5004840;28;20540;-69
2021/08/19 08:50:06;;;;;;;3.45;2.10;;;;;;;18.51;100.00;100427.22;5007054;28;20108;-69
2021/08/19 08:52:33;;;;;;;5.38;1.70;;;;;;;18.44;100.00;100436.31;5006945;28;20064;-69
2021/08/19 08:55:00;;;;;;;5.15;2.65;;;;;;;18.48;100.00;100433.53;4990939;28;20108;-69
2021/08/19 08:57:27;;;;;;;5.30;2.30;;;;;;;18.44;100.00;100447.22;5004817;28;20033;-69
2021/08/19 08:59:53;;;;;;;3.95;2.03;;;;;;;18.41;100.00;100436.31;5002174;28;20133;-69
2021/08/19 09:02:19;;;;;;;3.17;2.08;;;;;;;18.45;100.00;100445.25;4986080;28;20129;-70
2021/08/19 09:04:44;;;;;;;3.08;1.88;;;;;;;18.35;100.00;100443.44;5001431;28;20124;-70
2021/08/19 09:07:10;;;;;;;2.75;1.73;;;;;;;18.29;100.00;100453.25;5003113;28;20092;-70
2021/08/19 09:09:36;;;;;;;3.25;1.80;;;;;;;18.17;100.00;100453.81;4999836;28;20030;-69
2021/08/19 09:12:05;;;;;;;2.78;1.85;;;;;;;18.21;100.00;100452.59;5007402;28;20467;-70
2021/08/19 09:14:35;;;;;;;3.92;1.65;;;;;;;18.11;100.00;100450.78;5005593;28;20120;-69
2021/08/19 09:17:00;;;;;;;2.40;1.85;;;;;;;18.14;100.00;100454.66;5003500;28;20093;-70
2021/08/19 09:19:32;;;;;;;3.28;1.63;;;;;;;18.14;100.00;100454.66;5006164;28;20486;-69
2021/08/19 09:22:03;;;;;;;5.55;2.30;;;;;;;18.16;100.00;100454.97;5008762;28;20037;-69
2021/08/19 09:24:32;;;;;;;6.70;2.00;;;;;;;18.23;100.00;100457.63;5002259;28;20065;-69
2021/08/19 09:27:12;;;;;;;3.05;2.30;;;;;;;18.31;100.00;100462.56;5007818;28;20030;-69
2021/08/19 09:29:38;;;;;;;3.85;2.10;;;;;;;18.37;100.00;100455.47;4990860;28;20061;-70
2021/08/19 09:32:09;;;;;;;3.78;2.22;;;;;;;18.46;100.00;100452.25;5003922;28;20049;-69
2021/08/19 09:34:36;;;;;;;7.32;2.50;;;;;;;18.50;100.00;100442.84;5008309;28;20034;-69
2021/08/19 09:37:03;;;;;;;5.85;2.65;;;;;;;18.48;100.00;100456.13;5008166;28;20037;-70
2021/08/19 09:39:41;;;;;;;7.95;2.40;;;;;;;18.54;100.00;100453.69;5000719;28;20027;-70
2021/08/19 09:42:08;;;;;;;4.97;2.50;;;;;;;18.51;100.00;100462.69;5007346;28;20030;-70
2021/08/19 09:44:41;;;;;;;4.78;2.15;;;;;;;18.56;100.00;100445.88;5011233;28;20042;-70
2021/08/19 09:47:27;;;;;;;3.55;2.22;;;;;;;18.44;100.00;100462.81;5007783;28;20038;-70
2021/08/19 09:50:09;;;;;;;3.78;2.15;;;;;;;18.45;100.00;100465.09;5005580;28;20038;-70
2021/08/19 09:52:34;;;;;;;4.90;2.47;;;;;;;18.44;100.00;100470.97;5009078;28;20441;-70
2021/08/19 09:55:22;;;;;;;4.68;2.38;;;;;;;18.45;100.00;100456.16;5004725;28;20034;-71
2021/08/19 09:57:48;;;;;;;7.15;2.67;;;;;;;18.42;100.00;100452.31;5010045;28;20056;-70
2021/08/19 10:00:23;;;;;;;4.88;2.22;;;;;;;18.36;100.00;100453.16;5013322;28;20486;-70
2021/08/19 10:02:49;;;;;;;4.22;2.03;;;;;;;18.45;100.00;100465.09;5009433;28;20432;-70
2021/08/19 10:05:15;;;;;;;6.75;2.58;;;;;;;18.46;100.00;100460.44;4993520;28;20037;-71
2021/08/19 10:07:41;;;;;;;8.68;2.45;;;;;;;18.40;100.00;100460.09;4994378;28;20034;-70
2021/08/19 10:10:08;;;;;;;3.88;2.10;;;;;;;18.38;100.00;100467.16;5012353;28;20456;-70
2021/08/19 10:12:34;;;;;;;3.78;2.15;;;;;;;18.43;100.00;100453.84;5010873;28;20057;-70
2021/08/19 10:14:59;;;;;;;4.25;2.25;;;;;;;18.38;100.00;100469.88;4990277;28;20075;-70
2021/08/19 10:17:25;;;;;;;4.38;1.95;;;;;;;18.39;100.00;100465.97;5008504;28;20425;-70
2021/08/19 10:19:53;;;;;;;3.63;1.88;;;;;;;18.25;100.00;100463.44;5006712;28;20038;-70
2021/08/19 10:22:20;;;;;;;6.80;2.40;;;;;;;18.28;100.00;100457.16;5010158;28;20040;-70
2021/08/19 10:24:51;;;;;;;4.72;2.50;;;;;;;18.27;100.00;100467.31;5008198;28;20029;-71
2021/08/19 10:27:22;;;;;;;7.18;2.50;;;;;;;18.12;100.00;100459.75;5005217;28;20398;-71
2021/08/19 10:29:51;;;;;;;5.07;2.35;;;;;;;18.21;100.00;100460.00;5006900;28;20045;-71
2021/08/19 10:32:39;;;;;;;4.97;2.47;;;;;;;18.27;100.00;100469.25;5008571;28;20044;-71
2021/08/19 10:35:06;;;;;;;5.20;2.88;;;;;;;18.29;100.00;100459.47;5004841;28;20394;-70
2021/08/19 10:37:47;;;;;;;5.15;2.83;;;;;;;18.22;100.00;100456.84;5006789;28;20037;-70
2021/08/19 10:40:25;;;;;;;7.43;4.15;;;;;;;18.27;100.00;100453.69;5008437;28;20050;-70
2021/08/19 10:42:58;;;;;;;5.07;2.50;;;;;;;18.50;100.00;100461.16;5008855;28;20153;-70
2021/08/19 10:45:26;;;;;;;4.22;2.55;;;;;;;18.58;100.00;100459.88;5007741;28;20049;-70
2021/08/19 10:48:01;;;;;;;5.80;3.00;;;;;;;18.71;100.00;100458.88;5010380;28;20418;-70
2021/08/19 10:50:32;;;;;;;5.18;2.42;;;;;;;18.97;100.00;100456.50;5008332;28;20088;-70
2021/08/19 10:53:17;;;;;;;7.38;2.85;;;;;;;19.18;100.00;100467.78;5010587;28;20044;-70
2021/08/19 10:55:45;;;;;;;7.85;2.70;;;;;;;19.34;100.00;100462.47;5010453;28;20034;-71
2021/08/19 10:58:30;;;;;;;6.32;2.58;;;;;;;19.39;100.00;100463.94;5006042;28;20032;-70
2021/08/19 11:01:00;;;;;;;4.07;2.33;;;;;;;19.50;100.00;100467.25;5007557;28;20088;-70
2021/08/19 11:03:35;;;;;;;5.35;3.00;;;;;;;19.50;100.00;100462.56;5008662;28;20030;-70
2021/08/19 11:06:00;;;;;;;5.22;2.15;;;;;;;19.53;100.00;100463.69;5010144;28;20030;-70
2021/08/19 11:08:40;;;;;;;3.80;2.22;;;;;;;19.53;100.00;100469.16;5011286;28;20033;-70
2021/08/19 11:11:08;;;;;;;3.80;2.22;;;;;;;19.63;100.00;100460.75;5004916;28;20125;-71
2021/08/19 11:13:36;;;;;;;3.28;1.95;;;;;;;19.80;100.00;100462.34;5009161;28;20034;-70
2021/08/19 11:16:07;;;;;;;7.97;2.38;;;;;;;19.85;100.00;100468.50;5007053;28;20061;-70